Time;durP1;ratioP1;P1;durP2;ratioP2;P2;SDS_P1;SDS_P2;PMS_P1;PMS_P2;Temp;Humidity;BMP_temperature;BMP_pressure;BME280_temperature;BME280_humidity;BME280_pressure;Samples;Min_cycle;Max_cycle;Signal;HPM_P1;HPM_P2
2021/10/23 00:01:26;;;;;;;45.53;22.27;;;6.80;1.00;;;;;;5092711;28;20228;-62
2021/10/23 00:03:53;;;;;;;50.33;24.03;;;6.80;1.00;;;;;;5092774;28;20205;-62
2021/10/23 00:06:19;;;;;;;51.10;24.60;;;6.90;1.00;;;;;;5092030;28;20216;-62
2021/10/23 00:08:46;;;;;;;53.07;25.27;;;6.80;1.00;;;;;;5092486;28;20220;-62
2021/10/23 00:11:13;;;;;;;52.23;26.60;;;6.90;11.90;;;;;;5092669;28;20282;-62
2021/10/23 00:13:39;;;;;;;50.20;24.23;;;6.90;18.10;;;;;;5092546;28;20212;-62
2021/10/23 00:16:07;;;;;;;68.23;27.00;;;7.00;28.30;;;;;;5092449;28;20208;-62
2021/10/23 00:18:35;;;;;;;61.27;28.90;;;7.00;30.10;;;;;;5092380;28;20200;-62
2021/10/23 00:21:01;;;;;;;66.30;29.67;;;7.10;34.40;;;;;;5092266;28;20300;-62
2021/10/23 00:23:28;;;;;;;65.77;29.50;;;7.10;38.10;;;;;;5092431;28;20231;-62
2021/10/23 00:25:55;;;;;;;68.57;28.97;;;7.10;39.70;;;;;;5092171;28;20211;-62
2021/10/23 00:28:22;;;;;;;73.60;31.53;;;7.20;42.70;;;;;;5092383;28;20220;-62
2021/10/23 00:30:49;;;;;;;82.50;32.07;;;7.20;50.00;;;;;;5092087;28;20220;-62
2021/10/23 00:33:15;;;;;;;84.90;33.87;;;7.20;53.00;;;;;;5092331;28;20229;-61
2021/10/23 00:35:43;;;;;;;89.33;34.07;;;7.20;56.60;;;;;;5091729;28;20211;-62
2021/10/23 00:38:10;;;;;;;92.20;35.63;;;7.20;60.30;;;;;;5092400;28;20203;-62
2021/10/23 00:40:37;;;;;;;91.13;33.60;;;7.20;67.20;;;;;;5092041;28;20227;-62
2021/10/23 00:43:04;;;;;;;90.67;33.57;;;7.20;68.50;;;;;;5092098;28;20200;-62
2021/10/23 00:45:31;;;;;;;78.93;33.93;;;7.20;69.00;;;;;;5091584;28;20224;-61
2021/10/23 00:47:58;;;;;;;81.77;33.30;;;7.30;70.50;;;;;;5092007;28;20212;-62
2021/10/23 00:50:25;;;;;;;77.27;31.17;;;7.30;68.50;;;;;;5092125;28;20227;-61
2021/10/23 00:52:53;;;;;;;81.43;30.47;;;7.30;66.60;;;;;;5091832;28;20261;-62
2021/10/23 00:55:21;;;;;;;78.07;31.47;;;7.30;67.40;;;;;;5091820;28;20277;-62
2021/10/23 00:57:48;;;;;;;88.33;31.23;;;7.20;66.60;;;;;;5092018;28;20208;-62
2021/10/23 01:00:15;;;;;;;84.00;31.70;;;7.20;68.90;;;;;;5091970;28;20209;-62
2021/10/23 01:02:41;;;;;;;87.07;32.37;;;7.20;71.00;;;;;;5091988;28;20677;-62
2021/10/23 01:05:09;;;;;;;89.00;32.10;;;7.20;70.40;;;;;;5091879;28;20208;-62
2021/10/23 01:07:36;;;;;;;88.83;33.10;;;7.20;72.00;;;;;;5091836;28;20620;-62
2021/10/23 01:10:08;;;;;;;102.53;33.13;;;7.20;72.40;;;;;;5091899;28;20289;-62
2021/10/23 01:12:35;;;;;;;87.13;33.60;;;7.20;74.30;;;;;;5092069;28;20614;-62
2021/10/23 01:15:16;;;;;;;98.60;34.17;;;7.30;77.80;;;;;;5091307;28;20261;-61
2021/10/23 01:17:43;;;;;;;88.87;33.10;;;7.30;78.20;;;;;;5092103;28;20315;-63
2021/10/23 01:20:11;;;;;;;91.87;33.20;;;7.30;77.50;;;;;;5091799;28;20200;-62
2021/10/23 01:22:38;;;;;;;83.07;31.30;;;7.30;74.60;;;;;;5091874;28;20208;-63
2021/10/23 01:25:06;;;;;;;86.47;31.40;;;7.30;74.80;;;;;;5091655;28;20204;-62
2021/10/23 01:27:32;;;;;;;73.60;29.30;;;7.20;74.20;;;;;;5091647;28;20254;-62
2021/10/23 01:29:59;;;;;;;84.27;30.27;;;7.20;73.90;;;;;;5091782;28;20282;-62
2021/10/23 01:32:26;;;;;;;75.63;29.50;;;7.20;73.50;;;;;;5091784;28;20224;-62
2021/10/23 01:34:52;;;;;;;78.03;31.17;;;7.30;74.20;;;;;;5091522;28;20219;-62
2021/10/23 01:37:20;;;;;;;75.23;31.13;;;7.20;75.30;;;;;;5091612;28;20254;-62
2021/10/23 01:39:47;;;;;;;75.97;30.97;;;7.30;74.50;;;;;;5091753;28;20734;-62
2021/10/23 01:42:13;;;;;;;81.53;31.43;;;7.20;68.30;;;;;;5091328;28;20751;-62
2021/10/23 01:44:40;;;;;;;93.93;34.03;;;7.30;73.80;;;;;;5091522;28;20341;-62
2021/10/23 01:47:07;;;;;;;92.00;34.00;;;7.30;74.10;;;;;;5091761;28;20201;-62
2021/10/23 01:49:33;;;;;;;89.50;34.80;;;7.30;74.10;;;;;;5091695;28;20647;-63
2021/10/23 01:52:00;;;;;;;79.83;32.40;;;7.30;74.10;;;;;;5091442;28;20302;-63
2021/10/23 01:54:28;;;;;;;80.40;32.60;;;7.30;74.80;;;;;;5094724;28;20258;-62
2021/10/23 01:56:55;;;;;;;93.90;36.03;;;7.30;76.50;;;;;;5094797;28;20269;-62
2021/10/23 01:59:21;;;;;;;88.83;34.87;;;7.20;76.30;;;;;;5095161;28;20250;-62
2021/10/23 02:01:48;;;;;;;102.33;37.77;;;7.30;81.90;;;;;;5095195;28;20643;-63
2021/10/23 02:04:15;;;;;;;94.60;36.90;;;7.30;84.90;;;;;;5094996;28;20261;-62
2021/10/23 02:06:41;;;;;;;92.70;35.67;;;7.30;85.30;;;;;;5094609;28;20221;-62
2021/10/23 02:09:08;;;;;;;95.77;34.63;;;7.30;84.90;;;;;;5094918;28;20783;-62
2021/10/23 02:11:36;;;;;;;94.30;35.00;;;7.30;82.70;;;;;;5094686;28;20789;-62
2021/10/23 02:14:03;;;;;;;107.43;36.53;;;7.30;81.30;;;;;;5095085;28;20559;-62
2021/10/23 02:16:29;;;;;;;98.93;36.57;;;7.30;79.30;;;;;;5094668;28;20212;-62
2021/10/23 02:18:56;;;;;;;105.57;36.67;;;7.20;77.50;;;;;;5094890;28;20196;-63
2021/10/23 02:21:23;;;;;;;93.57;36.17;;;7.20;81.20;;;;;;5094683;28;20228;-63
2021/10/23 02:23:49;;;;;;;102.50;36.80;;;7.20;81.50;;;;;;5094635;28;20200;-62
2021/10/23 02:26:16;;;;;;;99.33;36.10;;;7.20;82.70;;;;;;5094461;28;20212;-63
2021/10/23 02:28:44;;;;;;;94.83;36.40;;;7.20;83.30;;;;;;5094593;28;20208;-62
2021/10/23 02:31:11;;;;;;;99.07;35.80;;;7.30;83.20;;;;;;5094779;28;20329;-62
2021/10/23 02:33:38;;;;;;;106.20;37.77;;;7.30;80.90;;;;;;5094535;28;20295;-63
2021/10/23 02:36:05;;;;;;;99.87;38.37;;;7.30;81.30;;;;;;5093926;28;20204;-63
2021/10/23 02:38:32;;;;;;;90.80;36.30;;;7.30;80.90;;;;;;5094247;28;20682;-63
2021/10/23 02:40:58;;;;;;;92.00;36.33;;;7.30;81.20;;;;;;5094600;28;20278;-62
2021/10/23 02:43:26;;;;;;;88.40;34.37;;;7.30;76.70;;;;;;5094619;28;20204;-63
2021/10/23 02:45:54;;;;;;;92.83;35.97;;;7.20;77.20;;;;;;5093657;28;20208;-63
2021/10/23 02:48:21;;;;;;;84.33;34.60;;;7.30;77.80;;;;;;5094222;28;20204;-63
2021/10/23 02:50:48;;;;;;;83.17;34.57;;;7.30;74.10;;;;;;5093944;28;20228;-62
2021/10/23 02:53:14;;;;;;;81.23;32.60;;;7.30;73.20;;;;;;5094473;28;20212;-63
2021/10/23 02:55:41;;;;;;;75.40;34.27;;;7.30;69.10;;;;;;5094007;28;20212;-62
2021/10/23 02:58:08;;;;;;;74.77;33.30;;;7.30;61.00;;;;;;5094050;28;20208;-62
2021/10/23 03:00:34;;;;;;;76.33;32.73;;;7.30;56.20;;;;;;5094009;28;20273;-62
2021/10/23 03:03:02;;;;;;;77.27;34.73;;;7.20;52.90;;;;;;5093916;28;20266;-62
2021/10/23 03:05:29;;;;;;;75.40;32.63;;;7.30;53.00;;;;;;5093234;28;20204;-62
2021/10/23 03:07:55;;;;;;;71.50;33.87;;;7.20;48.70;;;;;;5093972;28;20211;-61
2021/10/23 03:10:22;;;;;;;82.33;32.27;;;7.20;47.60;;;;;;5094104;28;20656;-62
2021/10/23 03:12:49;;;;;;;78.97;33.77;;;7.20;42.90;;;;;;5093721;28;20208;-62
2021/10/23 03:15:15;;;;;;;67.17;31.87;;;7.30;36.10;;;;;;5093443;28;20216;-63
2021/10/23 03:17:42;;;;;;;73.73;32.67;;;7.30;30.40;;;;;;5093618;28;20632;-61
2021/10/23 03:20:11;;;;;;;77.13;31.60;;;7.30;24.70;;;;;;5093301;28;20733;-62
2021/10/23 03:22:38;;;;;;;77.87;33.90;;;7.30;20.70;;;;;;5093652;28;20649;-62
2021/10/23 03:25:05;;;;;;;74.43;33.03;;;7.20;24.30;;;;;;5093027;28;20250;-63
2021/10/23 03:27:32;;;;;;;88.20;34.37;;;7.30;24.50;;;;;;5093552;28;20211;-63
2021/10/23 03:29:58;;;;;;;93.57;35.87;;;7.20;23.50;;;;;;5093314;28;20220;-62
2021/10/23 03:32:25;;;;;;;93.23;35.10;;;7.20;27.40;;;;;;5093137;28;20228;-62
2021/10/23 03:34:54;;;;;;;83.33;35.50;;;7.20;28.70;;;;;;5093009;28;20265;-62
2021/10/23 03:37:22;;;;;;;83.37;34.20;;;7.20;33.40;;;;;;5093259;28;20212;-62
2021/10/23 03:39:49;;;;;;;88.53;33.27;;;7.20;27.60;;;;;;5093436;28;20202;-62
2021/10/23 03:42:15;;;;;;;78.93;33.43;;;7.20;15.10;;;;;;5093262;28;20220;-62
2021/10/23 03:44:42;;;;;;;85.87;36.93;;;7.20;2.80;;;;;;5093108;28;20220;-62
2021/10/23 03:47:09;;;;;;;85.30;33.37;;;7.20;1.00;;;;;;5092748;28;20200;-62
2021/10/23 03:49:35;;;;;;;87.33;34.33;;;7.10;1.00;;;;;;5092821;28;20224;-62
2021/10/23 03:52:02;;;;;;;95.63;37.73;;;7.00;1.00;;;;;;5092695;28;20726;-62
2021/10/23 03:54:30;;;;;;;115.67;41.47;;;7.10;1.00;;;;;;5092799;28;20820;-62
2021/10/23 03:56:56;;;;;;;116.00;40.43;;;7.00;4.60;;;;;;5093085;28;20576;-62
2021/10/23 03:59:23;;;;;;;105.90;39.37;;;7.00;18.20;;;;;;5092705;28;20197;-62
2021/10/23 04:01:50;;;;;;;123.80;41.33;;;7.00;24.40;;;;;;5092577;28;20228;-62
2021/10/23 04:04:17;;;;;;;116.43;41.30;;;7.00;35.40;;;;;;5093012;28;20247;-62
2021/10/23 04:06:44;;;;;;;132.30;42.90;;;7.00;47.70;;;;;;5092457;28;20204;-62
2021/10/23 04:09:11;;;;;;;125.93;42.33;;;7.00;55.30;;;;;;5092545;28;20246;-62
2021/10/23 04:11:39;;;;;;;139.23;44.23;;;7.00;64.00;;;;;;5092523;28;20224;-61
2021/10/23 04:14:06;;;;;;;144.30;45.57;;;7.00;73.90;;;;;;5092322;28;20236;-61
2021/10/23 04:16:32;;;;;;;144.73;43.77;;;7.00;80.70;;;;;;5091704;28;20212;-63
2021/10/23 04:18:59;;;;;;;159.47;42.67;;;7.00;87.40;;;;;;5092574;28;20595;-63
2021/10/23 04:21:26;;;;;;;151.83;44.93;;;7.00;88.10;;;;;;5092375;28;20224;-61
2021/10/23 04:23:53;;;;;;;150.00;43.50;;;7.00;90.40;;;;;;5092385;28;20261;-61
2021/10/23 04:26:20;;;;;;;134.60;42.90;;;7.10;91.20;;;;;;5091729;28;20744;-63
2021/10/23 04:28:48;;;;;;;131.70;43.47;;;7.10;90.80;;;;;;5092310;28;20204;-63
2021/10/23 04:31:15;;;;;;;115.37;39.33;;;7.00;88.10;;;;;;5092079;28;20289;-61
2021/10/23 04:33:42;;;;;;;115.10;40.77;;;7.10;88.10;;;;;;5092393;28;20212;-62
2021/10/23 04:36:09;;;;;;;109.93;38.00;;;7.00;87.50;;;;;;5091833;28;20689;-62
2021/10/23 04:38:35;;;;;;;117.03;40.80;;;7.00;85.20;;;;;;5092162;28;20205;-63
2021/10/23 04:41:02;;;;;;;101.03;38.60;;;7.00;82.40;;;;;;5091976;28;20631;-63
2021/10/23 04:43:29;;;;;;;113.23;39.27;;;7.00;78.30;;;;;;5091929;28;20208;-63
2021/10/23 04:45:57;;;;;;;109.90;37.67;;;7.00;73.20;;;;;;5091583;28;20216;-63
2021/10/23 04:48:23;;;;;;;103.93;38.07;;;6.90;65.70;;;;;;5091975;28;20204;-63
2021/10/23 04:50:50;;;;;;;116.47;36.17;;;6.80;63.50;;;;;;5091963;28;20224;-63
2021/10/23 04:53:17;;;;;;;101.33;36.03;;;6.80;65.70;;;;;;5091921;28;20204;-63
2021/10/23 04:55:43;;;;;;;105.47;36.57;;;6.80;59.80;;;;;;5091663;28;20250;-63
2021/10/23 04:58:10;;;;;;;116.73;36.53;;;6.70;57.00;;;;;;5091755;28;20618;-63
2021/10/23 05:00:37;;;;;;;115.70;38.53;;;6.60;54.70;;;;;;5091795;28;20217;-63
2021/10/23 05:03:05;;;;;;;101.23;34.83;;;6.50;51.20;;;;;;5091906;28;20200;-63
2021/10/23 05:05:32;;;;;;;122.83;38.07;;;6.40;54.40;;;;;;5091442;28;20204;-62
2021/10/23 05:07:58;;;;;;;116.17;36.53;;;6.40;56.50;;;;;;5091888;28;20208;-63
2021/10/23 05:10:25;;;;;;;130.43;36.97;;;6.40;54.70;;;;;;5091532;28;20277;-62
2021/10/23 05:12:52;;;;;;;134.73;40.73;;;6.40;54.70;;;;;;5091868;28;20208;-63
2021/10/23 05:15:19;;;;;;;130.00;39.60;;;6.40;55.80;;;;;;5091793;28;20208;-63
2021/10/23 05:17:46;;;;;;;168.57;42.27;;;6.40;51.70;;;;;;5091541;28;20665;-63
2021/10/23 05:20:14;;;;;;;193.20;43.00;;;6.40;53.80;;;;;;5091628;28;20210;-62
2021/10/23 05:22:41;;;;;;;188.97;44.73;;;6.40;58.80;;;;;;5091713;28;20262;-63
2021/10/23 05:25:08;;;;;;;187.90;45.23;;;6.40;63.60;;;;;;5091225;28;20209;-62
2021/10/23 05:27:35;;;;;;;176.67;43.30;;;6.40;65.90;;;;;;5092177;28;20257;-63
2021/10/23 05:30:02;;;;;;;172.70;42.13;;;6.50;68.50;;;;;;5095589;28;20227;-63
2021/10/23 05:32:28;;;;;;;187.57;46.17;;;6.50;71.50;;;;;;5095495;28;20224;-63
2021/10/23 05:34:55;;;;;;;185.63;45.87;;;6.60;70.20;;;;;;5095048;28;20676;-63
2021/10/23 05:37:23;;;;;;;244.23;47.53;;;6.60;71.10;;;;;;5095779;28;20208;-62
2021/10/23 05:39:49;;;;;;;243.37;46.53;;;6.60;73.00;;;;;;5095325;28;20257;-63
2021/10/23 05:42:16;;;;;;;237.67;46.33;;;6.60;75.50;;;;;;5095507;28;20231;-63
2021/10/23 05:44:43;;;;;;;196.37;45.03;;;6.60;78.10;;;;;;5094764;28;20540;-63
2021/10/23 05:47:10;;;;;;;218.77;47.03;;;6.60;79.80;;;;;;5095372;28;20664;-62
2021/10/23 05:49:37;;;;;;;224.37;46.27;;;6.60;80.30;;;;;;5095298;28;20703;-62
2021/10/23 05:52:04;;;;;;;198.43;44.80;;;6.60;82.50;;;;;;5095033;28;20638;-63
2021/10/23 05:54:36;;;;;;;234.67;47.33;;;6.60;87.60;;;;;;5095314;28;20201;-60
2021/10/23 05:57:05;;;;;;;241.63;46.80;;;6.60;91.30;;;;;;5095457;28;20205;-60
2021/10/23 05:59:32;;;;;;;185.97;44.40;;;6.70;92.30;;;;;;5095286;28;20215;-60
2021/10/23 06:02:09;;;;;;;233.27;45.50;;;6.70;94.00;;;;;;5095101;28;20270;-60
2021/10/23 06:04:36;;;;;;;203.47;45.63;;;6.70;94.50;;;;;;5094690;28;20204;-60
2021/10/23 06:07:04;;;;;;;193.80;44.07;;;6.60;94.70;;;;;;5094839;28;20708;-61
2021/10/23 06:09:33;;;;;;;212.73;44.73;;;6.70;95.30;;;;;;5095249;28;20253;-62
2021/10/23 06:12:01;;;;;;;202.70;47.47;;;6.60;96.10;;;;;;5094819;28;20765;-61
2021/10/23 06:14:28;;;;;;;171.93;43.60;;;6.70;98.50;;;;;;5094746;28;20211;-62
2021/10/23 06:16:55;;;;;;;210.80;47.23;;;6.70;98.70;;;;;;5094568;28;20205;-61
2021/10/23 06:19:22;;;;;;;187.70;49.10;;;6.80;99.90;;;;;;5094613;28;20237;-62
2021/10/23 06:21:48;;;;;;;197.13;46.60;;;6.80;99.90;;;;;;5094815;28;20588;-61
2021/10/23 06:24:15;;;;;;;210.77;47.50;;;6.80;99.90;;;;;;5094766;28;20564;-62
2021/10/23 06:26:43;;;;;;;201.83;48.90;;;6.90;99.90;;;;;;5094503;28;20315;-62
2021/10/23 06:29:10;;;;;;;187.47;47.90;;;6.90;99.90;;;;;;5094680;28;20212;-62
2021/10/23 06:31:36;;;;;;;180.13;46.73;;;7.00;99.90;;;;;;5094264;28;20262;-61
2021/10/23 06:34:03;;;;;;;177.90;46.63;;;7.00;99.90;;;;;;5094743;28;20616;-61
2021/10/23 06:36:30;;;;;;;168.67;42.87;;;7.10;99.90;;;;;;5094245;28;20561;-62
2021/10/23 06:38:56;;;;;;;190.43;49.07;;;7.10;99.90;;;;;;5094213;28;20208;-61
2021/10/23 06:41:23;;;;;;;176.90;45.90;;;7.10;99.90;;;;;;5094152;28;20616;-61
2021/10/23 06:43:51;;;;;;;175.67;46.57;;;7.20;99.90;;;;;;5094615;28;20572;-61
2021/10/23 06:46:18;;;;;;;165.53;45.73;;;7.30;99.90;;;;;;5093638;28;20265;-61
2021/10/23 06:48:45;;;;;;;167.43;46.23;;;7.30;99.90;;;;;;5094527;28;20200;-61
2021/10/23 06:51:11;;;;;;;147.30;44.60;;;7.30;99.90;;;;;;5094099;28;20281;-61
2021/10/23 06:53:38;;;;;;;147.20;43.13;;;7.40;99.90;;;;;;5094179;28;20562;-61
2021/10/23 06:56:05;;;;;;;155.50;43.50;;;7.40;99.90;;;;;;5093875;28;20201;-61
2021/10/23 06:58:31;;;;;;;162.43;44.53;;;7.30;99.90;;;;;;5093955;28;20201;-60
2021/10/23 07:01:00;;;;;;;157.83;43.90;;;7.30;99.90;;;;;;5093844;28;20225;-61
2021/10/23 07:03:26;;;;;;;148.17;42.73;;;7.30;99.90;;;;;;5094070;28;20208;-62
2021/10/23 07:05:53;;;;;;;148.47;42.90;;;7.40;99.90;;;;;;5093706;28;20208;-61
2021/10/23 07:08:20;;;;;;;149.27;42.33;;;7.30;99.90;;;;;;5093909;28;20205;-61
2021/10/23 07:10:46;;;;;;;157.33;43.80;;;7.30;99.90;;;;;;5093802;28;20232;-61
2021/10/23 07:13:13;;;;;;;148.70;43.20;;;7.30;99.90;;;;;;5093738;28;20205;-60
2021/10/23 07:15:40;;;;;;;151.07;43.47;;;7.30;99.90;;;;;;5093127;28;20237;-61
2021/10/23 07:18:08;;;;;;;156.43;44.53;;;7.40;99.90;;;;;;5093884;28;20642;-61
2021/10/23 07:20:36;;;;;;;150.53;43.57;;;7.50;99.90;;;;;;5093535;28;20228;-61
2021/10/23 07:23:03;;;;;;;144.33;41.83;;;7.50;99.90;;;;;;5093611;28;20247;-60
2021/10/23 07:25:29;;;;;;;154.27;43.30;;;7.40;99.90;;;;;;5093082;28;20204;-61
2021/10/23 07:27:56;;;;;;;143.97;41.87;;;7.40;99.90;;;;;;5093529;28;20204;-61
2021/10/23 07:30:23;;;;;;;152.23;41.20;;;7.30;99.90;;;;;;5093500;28;20257;-60
2021/10/23 07:32:50;;;;;;;149.43;41.80;;;7.20;99.90;;;;;;5093296;28;20785;-61
2021/10/23 07:35:18;;;;;;;139.60;41.37;;;7.20;99.90;;;;;;5093191;28;20212;-61
2021/10/23 07:37:45;;;;;;;153.70;43.60;;;7.20;99.90;;;;;;5093238;28;20212;-61
2021/10/23 07:40:14;;;;;;;145.20;42.33;;;7.30;99.90;;;;;;5093235;28;20261;-61
2021/10/23 07:42:42;;;;;;;143.13;42.27;;;7.40;99.90;;;;;;5093064;28;20207;-61
2021/10/23 07:45:10;;;;;;;140.70;41.67;;;7.50;99.90;;;;;;5092958;28;20212;-61
2021/10/23 07:47:37;;;;;;;152.87;43.27;;;7.60;99.90;;;;;;5091143;28;20215;-61
2021/10/23 07:50:13;;;;;;;128.53;41.03;;;7.60;99.90;;;;;;5091471;28;20743;-61
2021/10/23 07:52:41;;;;;;;144.60;42.10;;;7.60;99.90;;;;;;5092728;28;20220;-61
2021/10/23 07:55:10;;;;;;;137.53;42.83;;;7.70;99.90;;;;;;5092318;28;20205;-66
2021/10/23 07:57:37;;;;;;;154.17;43.40;;;7.80;99.90;;;;;;5093116;28;20235;-66
2021/10/23 08:00:05;;;;;;;140.03;41.10;;;7.90;99.90;;;;;;5092681;28;20219;-67
2021/10/23 08:02:32;;;;;;;129.07;41.33;;;8.00;99.90;;;;;;5092666;28;20222;-67
2021/10/23 08:04:58;;;;;;;133.30;43.07;;;8.00;99.90;;;;;;5092304;28;20203;-62
2021/10/23 08:07:25;;;;;;;131.63;42.00;;;8.30;99.90;;;;;;5092485;28;20699;-62
2021/10/23 08:09:54;;;;;;;113.13;38.83;;;8.40;99.90;;;;;;5092403;28;20214;-63
2021/10/23 08:12:21;;;;;;;103.90;35.77;;;8.50;99.90;;;;;;5092487;28;20322;-62
2021/10/23 08:14:47;;;;;;;98.63;35.70;;;8.40;99.90;;;;;;5092067;28;20232;-62
2021/10/23 08:17:14;;;;;;;95.33;35.30;;;8.40;99.90;;;;;;5092242;28;20728;-62
2021/10/23 08:19:41;;;;;;;94.83;36.07;;;8.40;99.90;;;;;;5092381;28;20210;-62
2021/10/23 08:22:07;;;;;;;99.07;36.93;;;8.40;99.90;;;;;;5091777;28;20227;-62
2021/10/23 08:24:34;;;;;;;91.57;34.53;;;8.50;95.70;;;;;;5091931;28;20562;-62
2021/10/23 08:27:02;;;;;;;81.53;33.77;;;8.60;89.90;;;;;;5092371;28;20210;-62
2021/10/23 08:29:29;;;;;;;82.03;34.13;;;8.60;73.20;;;;;;5092402;28;20264;-62
2021/10/23 08:31:55;;;;;;;78.93;32.53;;;8.60;37.40;;;;;;5092087;28;20238;-63
2021/10/23 08:34:22;;;;;;;71.27;32.17;;;8.60;7.90;;;;;;5092076;28;20210;-62
2021/10/23 08:36:49;;;;;;;75.37;32.43;;;8.70;1.00;;;;;;5091491;28;20210;-62
2021/10/23 08:39:15;;;;;;;74.13;30.67;;;8.80;1.00;;;;;;5092122;28;20242;-62
2021/10/23 08:41:43;;;;;;;77.43;32.00;;;8.90;1.00;;;;;;5092176;28;20590;-62
2021/10/23 08:44:14;;;;;;;61.63;29.40;;;8.90;99.90;;;;;;5092069;28;20578;-62
2021/10/23 08:46:42;;;;;;;65.60;30.13;;;9.00;99.90;;;;;;5091676;28;20247;-62
2021/10/23 08:49:09;;;;;;;58.33;27.13;;;9.00;1.00;;;;;;5091942;28;20662;-63
2021/10/23 08:51:36;;;;;;;55.63;27.03;;;9.10;1.00;;;;;;5091598;28;20231;-62
2021/10/23 08:54:02;;;;;;;58.97;27.20;;;9.10;1.00;;;;;;5091852;28;20254;-63
2021/10/23 08:56:29;;;;;;;46.10;22.13;;;9.20;1.00;;;;;;5079027;28;20210;-62
2021/10/23 08:58:56;;;;;;;49.80;21.67;;;9.20;1.00;;;;;;5091760;28;20768;-62
2021/10/23 09:01:24;;;;;;;45.40;22.07;;;9.20;1.00;;;;;;5091906;28;20626;-63
2021/10/23 09:03:53;;;;;;;41.00;21.63;;;9.30;99.90;;;;;;5095584;28;20200;-60
2021/10/23 09:06:29;;;;;;;47.13;21.77;;;9.30;54.10;;;;;;5095462;28;20277;-59
2021/10/23 09:09:02;;;;;;;48.77;21.93;;;9.30;99.90;;;;;;5095841;28;20206;-62
2021/10/23 09:11:35;;;;;;;45.90;21.17;;;9.40;1.00;;;;;;5095782;28;20266;-61
2021/10/23 09:14:28;;;;;;;41.67;19.97;;;9.50;99.90;;;;;;5095791;28;20302;-60
2021/10/23 09:17:05;;;;;;;38.03;20.17;;;9.50;1.00;;;;;;5080549;28;20242;-59
2021/10/23 09:19:37;;;;;;;45.57;19.80;;;9.60;99.90;;;;;;5095684;28;20200;-60
2021/10/23 09:22:05;;;;;;;35.57;17.97;;;9.60;99.90;;;;;;5095660;28;20224;-60
2021/10/23 09:24:32;;;;;;;33.57;16.77;;;9.70;1.30;;;;;;5095502;28;20204;-60
2021/10/23 09:26:59;;;;;;;28.13;15.07;;;9.80;99.90;;;;;;5094817;28;20208;-60
2021/10/23 09:29:28;;;;;;;29.97;16.37;;;9.80;99.90;;;;;;5095525;28;20208;-64
2021/10/23 09:31:55;;;;;;;32.30;15.80;;;9.90;57.40;;;;;;5095037;28;20236;-59
2021/10/23 09:34:25;;;;;;;29.03;14.87;;;10.00;1.00;;;;;;5095308;28;20201;-61
2021/10/23 09:36:53;;;;;;;28.80;14.93;;;10.00;1.00;;;;;;5094675;28;20204;-63
2021/10/23 09:39:27;;;;;;;35.93;16.23;;;10.10;1.00;;;;;;5095594;28;20230;-63
2021/10/23 09:42:12;;;;;;;31.27;14.73;;;10.10;99.90;;;;;;5094523;28;20267;-58
2021/10/23 09:45:00;;;;;;;30.53;15.00;;;10.20;99.90;;;;;;5095064;28;20238;-60
2021/10/23 09:47:26;;;;;;;32.17;15.90;;;10.20;89.50;;;;;;5095370;28;20236;-58
2021/10/23 09:50:14;;;;;;;24.73;12.93;;;10.10;12.60;;;;;;5095129;28;20691;-58
2021/10/23 09:53:02;;;;;;;26.07;14.50;;;10.20;1.00;;;;;;5095515;28;20228;-60
2021/10/23 09:55:32;;;;;;;29.00;13.30;;;10.30;1.00;;;;;;5094868;28;20205;-59
2021/10/23 09:58:15;;;;;;;27.80;13.77;;;10.40;1.00;;;;;;5095352;28;20200;-58
2021/10/23 10:00:44;;;;;;;25.30;13.57;;;10.50;25.40;;;;;;5095066;28;20229;-61
2021/10/23 10:03:11;;;;;;;30.13;13.43;;;10.60;1.00;;;;;;5095202;28;20622;-61
2021/10/23 10:05:41;;;;;;;30.03;13.50;;;10.70;99.90;;;;;;5094551;28;20258;-61
2021/10/23 10:08:12;;;;;;;21.83;11.03;;;10.80;99.90;;;;;;5094994;28;20204;-61
2021/10/23 10:10:40;;;;;;;27.60;11.50;;;10.90;99.90;;;;;;5095319;28;20224;-61
2021/10/23 10:13:09;;;;;;;26.63;11.60;;;10.90;99.90;;;;;;5094226;28;20228;-61
2021/10/23 10:15:36;;;;;;;23.00;11.73;;;11.00;99.90;;;;;;5094420;28;20211;-61
2021/10/23 10:18:04;;;;;;;23.20;11.07;;;11.10;99.90;;;;;;5094782;28;20208;-61
2021/10/23 10:20:32;;;;;;;22.37;11.20;;;11.00;74.50;;;;;;5094631;28;20236;-61
2021/10/23 10:23:00;;;;;;;22.60;11.50;;;10.80;60.30;;;;;;5094461;28;20235;-61
2021/10/23 10:25:28;;;;;;;25.80;10.67;;;10.90;99.90;;;;;;5094338;28;20207;-61
2021/10/23 10:27:55;;;;;;;21.33;10.20;;;11.00;99.90;;;;;;5094704;28;20208;-61
2021/10/23 10:30:27;;;;;;;24.67;10.93;;;11.10;43.60;;;;;;5094726;28;20210;-60
2021/10/23 10:32:54;;;;;;;22.47;11.00;;;11.00;31.50;;;;;;5094494;28;20605;-60
2021/10/23 10:35:55;;;;;;;24.73;11.27;;;11.00;23.70;;;;;;5093863;28;20220;-60
2021/10/23 10:38:41;;;;;;;21.47;10.57;;;10.90;24.60;;;;;;5094451;28;20291;-60
2021/10/23 10:44:12;;;;;;;26.43;10.70;;;11.00;8.50;;;;;;5094480;28;20200;-61
2021/10/23 10:47:10;;;;;;;22.47;10.87;;;11.10;5.30;;;;;;5093544;28;20696;-60
2021/10/23 10:49:42;;;;;;;24.60;11.17;;;11.20;47.00;;;;;;5094338;28;20672;-61
2021/10/23 10:52:43;;;;;;;24.53;11.37;;;11.20;4.60;;;;;;5094265;28;20228;-61
2021/10/23 10:55:12;;;;;;;24.80;10.60;;;11.30;17.40;;;;;;5094107;28;20210;-60
2021/10/23 10:57:54;;;;;;;24.93;11.33;;;11.40;4.70;;;;;;5094138;28;20296;-60
2021/10/23 11:00:21;;;;;;;22.37;11.40;;;11.40;5.90;;;;;;5093997;28;20585;-60
2021/10/23 11:02:48;;;;;;;24.63;10.43;;;11.40;1.00;;;;;;5093796;28;20613;-60
2021/10/23 11:05:18;;;;;;;22.87;10.67;;;11.50;1.00;;;;;;5093558;28;20208;-59
2021/10/23 11:08:06;;;;;;;19.67;9.87;;;11.40;1.00;;;;;;5093787;28;20209;-60
2021/10/23 11:10:57;;;;;;;24.27;9.67;;;11.30;1.00;;;;;;5093723;28;20596;-60
2021/10/23 11:13:25;;;;;;;21.90;10.00;;;11.40;1.00;;;;;;5075191;28;20639;-63
2021/10/23 11:15:51;;;;;;;20.37;9.13;;;11.40;1.00;;;;;;5072570;28;20296;-60
2021/10/23 11:18:18;;;;;;;19.67;8.80;;;11.40;1.00;;;;;;5072919;28;20243;-61
2021/10/23 11:20:45;;;;;;;18.33;8.37;;;11.40;1.00;;;;;;5072620;28;20229;-64
2021/10/23 11:23:19;;;;;;;16.67;7.60;;;11.40;1.00;;;;;;5072518;28;20205;-63
2021/10/23 11:25:45;;;;;;;16.67;7.83;;;11.40;1.00;;;;;;5071178;28;20262;-62
2021/10/23 11:28:13;;;;;;;15.00;6.37;;;11.30;1.00;;;;;;5072653;28;20636;-61
2021/10/23 11:30:42;;;;;;;12.00;6.33;;;11.20;1.00;;;;;;5072401;28;20300;-60
2021/10/23 11:33:10;;;;;;;14.37;5.57;;;11.30;1.00;;;;;;5072434;28;20577;-61
2021/10/23 11:35:39;;;;;;;13.27;5.23;;;11.30;1.00;;;;;;5073542;28;20205;-61
2021/10/23 11:38:08;;;;;;;11.73;4.80;;;11.40;1.00;;;;;;5090871;28;20257;-63
2021/10/23 11:40:36;;;;;;;15.50;5.03;;;11.50;1.00;;;;;;5103327;22;20219;-64
2021/10/23 11:43:04;;;;;;;11.80;4.50;;;11.60;1.00;;;;;;5012046;28;20306;-64
2021/10/23 11:45:33;;;;;;;10.67;4.03;;;11.50;1.00;;;;;;5012458;28;20216;-64
2021/10/23 11:48:05;;;;;;;13.07;4.17;;;11.50;1.00;;;;;;5012644;28;20676;-62
2021/10/23 11:50:33;;;;;;;9.20;3.87;;;11.60;1.00;;;;;;5012015;28;20236;-62
2021/10/23 11:53:03;;;;;;;8.40;4.03;;;11.70;1.00;;;;;;5012432;28;20234;-61
2021/10/23 11:55:35;;;;;;;9.03;3.27;;;11.70;1.00;;;;;;5012196;28;20208;-61
2021/10/23 11:58:05;;;;;;;7.80;2.77;;;11.70;1.00;;;;;;5012594;28;20207;-63
2021/10/23 12:00:33;;;;;;;9.30;4.90;;;11.80;1.00;;;;;;5012336;28;20311;-62
2021/10/23 12:03:03;;;;;;;12.60;4.57;;;12.00;1.00;;;;;;5012083;28;20201;-62
2021/10/23 12:05:38;;;;;;;10.57;3.17;;;12.00;1.00;;;;;;5011706;28;20257;-63
2021/10/23 12:08:15;;;;;;;6.30;2.63;;;12.10;1.00;;;;;;5012002;28;20213;-62
2021/10/23 12:11:13;;;;;;;6.70;2.00;;;12.10;1.00;;;;;;5012208;28;20313;-62
2021/10/23 12:14:02;;;;;;;9.00;2.83;;;12.10;1.00;;;;;;5011770;28;20227;-62
2021/10/23 12:16:39;;;;;;;10.70;2.70;;;12.10;1.00;;;;;;5003939;28;20233;-62
2021/10/23 12:19:10;;;;;;;8.67;2.07;;;12.20;1.00;;;;;;5012213;28;20238;-61
2021/10/23 12:21:46;;;;;;;10.13;3.20;;;12.20;1.00;;;;;;5011965;28;20840;-61
2021/10/23 12:24:19;;;;;;;9.77;3.03;;;12.10;1.00;;;;;;5012258;28;20207;-58
2021/10/23 12:27:04;;;;;;;6.60;2.50;;;12.00;1.00;;;;;;5011787;28;20675;-62
2021/10/23 12:29:35;;;;;;;6.40;2.97;;;12.00;1.00;;;;;;5012060;28;20213;-59
2021/10/23 12:32:06;;;;;;;11.23;3.60;;;12.00;1.00;;;;;;5012065;28;20245;-60
2021/10/23 12:34:55;;;;;;;6.87;2.97;;;12.10;1.00;;;;;;5011751;28;20275;-60
2021/10/23 12:37:37;;;;;;;11.77;3.57;;;12.10;1.00;;;;;;5011701;28;20310;-60
2021/10/23 12:40:10;;;;;;;6.23;2.40;;;12.20;1.00;;;;;;5012851;28;20261;-60
2021/10/23 12:42:39;;;;;;;8.27;3.47;;;12.30;1.00;;;;;;5011701;28;20321;-60
2021/10/23 12:45:08;;;;;;;4.77;2.83;;;12.20;1.00;;;;;;5011454;28;20673;-61
2021/10/23 12:47:37;;;;;;;7.50;1.90;;;12.30;1.00;;;;;;5012032;28;20573;-61